createdAt,value
2019-02-05T00:00:56.752Z,1015.10
2019-02-05T00:01:56.772Z,1015.13
2019-02-05T00:02:56.740Z,1015.10
2019-02-05T00:03:56.724Z,1015.13
2019-02-05T00:04:56.724Z,1015.10
2019-02-05T00:05:56.694Z,1015.10
2019-02-05T00:06:56.683Z,1015.11
2019-02-05T00:07:56.693Z,1015.05
2019-02-05T00:08:56.704Z,1015.05
2019-02-05T00:09:56.707Z,1015.08
2019-02-05T00:10:56.627Z,1015.09
2019-02-05T00:11:56.648Z,1015.12
2019-02-05T00:12:56.639Z,1015.14
2019-02-05T00:14:05.393Z,1015.14
2019-02-05T00:16:01.080Z,1015.21
2019-02-05T00:17:01.056Z,1015.21
2019-02-05T00:18:01.042Z,1015.20
2019-02-05T00:19:01.050Z,1015.21
2019-02-05T00:20:01.017Z,1015.17
2019-02-05T00:21:01.007Z,1015.18
2019-02-05T00:22:00.994Z,1015.18
2019-02-05T00:23:00.986Z,1015.17
2019-02-05T00:24:00.961Z,1015.20
2019-02-05T00:25:00.948Z,1015.20
2019-02-05T00:26:06.243Z,1015.18
2019-02-05T00:27:00.923Z,1015.18
2019-02-05T00:28:00.913Z,1015.22
2019-02-05T00:29:00.900Z,1015.23
2019-02-05T00:30:00.882Z,1015.26
2019-02-05T00:31:00.895Z,1015.27
2019-02-05T00:32:00.867Z,1015.27
2019-02-05T00:33:00.849Z,1015.29
2019-02-05T00:34:00.832Z,1015.32
2019-02-05T00:35:00.828Z,1015.31
2019-02-05T00:36:00.810Z,1015.31
2019-02-05T00:37:00.808Z,1015.32
2019-02-05T00:38:00.788Z,1015.32
2019-02-05T00:39:00.779Z,1015.33
2019-02-05T00:40:00.766Z,1015.35
2019-02-05T00:41:00.753Z,1015.33
2019-02-05T00:42:00.746Z,1015.32
2019-02-05T00:43:00.735Z,1015.35
2019-02-05T00:44:00.712Z,1015.37
2019-02-05T00:45:00.703Z,1015.33
2019-02-05T00:46:00.694Z,1015.37
2019-02-05T00:47:00.689Z,1015.37
2019-02-05T00:48:00.682Z,1015.33
2019-02-05T00:49:00.644Z,1015.37
2019-02-05T00:50:00.634Z,1015.36
2019-02-05T00:51:00.628Z,1015.37
2019-02-05T00:52:00.606Z,1015.39
2019-02-05T00:53:00.603Z,1015.39
2019-02-05T00:54:00.622Z,1015.41
2019-02-05T00:55:00.577Z,1015.41
2019-02-05T00:56:00.558Z,1015.39
2019-02-05T00:57:00.564Z,1015.43
2019-02-05T00:58:00.551Z,1015.45
2019-02-05T00:59:00.533Z,1015.42
2019-02-05T01:00:00.586Z,1015.43
2019-02-05T01:01:00.501Z,1015.43
2019-02-05T01:02:00.488Z,1015.43
2019-02-05T01:03:00.484Z,1015.39
2019-02-05T01:04:00.474Z,1015.37
2019-02-05T01:05:00.482Z,1015.42
2019-02-05T01:06:00.438Z,1015.35
2019-02-05T01:07:00.430Z,1015.28
2019-02-05T01:08:00.411Z,1015.25
2019-02-05T01:09:00.419Z,1015.22
2019-02-05T01:10:00.383Z,1015.15
2019-02-05T01:11:00.369Z,1015.08
2019-02-05T01:12:00.362Z,1015.07
2019-02-05T01:13:00.355Z,1015.04
2019-02-05T01:14:00.346Z,1015.04
2019-02-05T01:15:00.476Z,1015.10
2019-02-05T01:16:00.312Z,1015.06
2019-02-05T01:17:00.298Z,1015.06
2019-02-05T01:18:00.281Z,1015.09
2019-02-05T01:19:00.264Z,1015.04
2019-02-05T01:20:00.263Z,1015.05
2019-02-05T01:21:00.244Z,1015.04
2019-02-05T01:22:00.238Z,1015.04
2019-02-05T01:23:00.218Z,1015.04
2019-02-05T01:24:00.220Z,1015.00
2019-02-05T01:25:00.406Z,1015.01
2019-02-05T01:26:00.182Z,1015.02
2019-02-05T01:27:00.170Z,1015.06
2019-02-05T01:28:00.170Z,1014.98
2019-02-05T01:29:00.161Z,1015.01
2019-02-05T01:30:00.353Z,1014.97
2019-02-05T01:31:00.114Z,1014.94
2019-02-05T01:32:00.110Z,1014.88
2019-02-05T01:33:00.096Z,1014.88
2019-02-05T01:34:00.080Z,1014.88
2019-02-05T01:35:00.100Z,1014.88
2019-02-05T01:36:00.064Z,1014.85
2019-02-05T01:37:00.046Z,1014.88
2019-02-05T01:38:00.030Z,1014.84
2019-02-05T01:39:00.026Z,1014.85
2019-02-05T01:40:00.017Z,1014.87
2019-02-05T01:41:00.034Z,1014.90
2019-02-05T01:41:59.982Z,1014.91
2019-02-05T01:42:59.983Z,1014.94
2019-02-05T01:43:59.958Z,1014.94
2019-02-05T01:44:59.954Z,1014.94
2019-02-05T01:45:59.949Z,1014.95
2019-02-05T01:46:59.920Z,1014.97
2019-02-05T01:47:59.913Z,1014.98
2019-02-05T01:48:59.995Z,1015.01
2019-02-05T01:49:59.895Z,1014.99
2019-02-05T01:50:59.886Z,1014.96
2019-02-05T01:51:59.860Z,1014.97
2019-02-05T01:52:59.845Z,1014.98
2019-02-05T01:53:59.826Z,1014.99
2019-02-05T01:54:59.816Z,1014.99
2019-02-05T01:55:59.852Z,1015.05
2019-02-05T01:56:59.827Z,1015.02
2019-02-05T01:57:59.804Z,1015.03
2019-02-05T01:58:59.779Z,1014.97
2019-02-05T01:59:59.756Z,1014.99
2019-02-05T02:00:59.753Z,1014.96
2019-02-05T02:01:59.737Z,1014.95
2019-02-05T02:02:59.724Z,1014.97
2019-02-05T02:03:59.707Z,1014.96
2019-02-05T02:04:59.693Z,1014.98
2019-02-05T02:05:59.695Z,1015.01
2019-02-05T02:06:59.671Z,1015.05
2019-02-05T02:07:59.662Z,1015.03
2019-02-05T02:09:08.308Z,1014.96
2019-02-05T02:11:04.120Z,1014.94
2019-02-05T02:12:04.083Z,1014.90
2019-02-05T02:13:04.078Z,1014.92
2019-02-05T02:14:04.053Z,1014.87
2019-02-05T02:15:04.052Z,1014.87
2019-02-05T02:16:04.044Z,1014.81
2019-02-05T02:17:04.018Z,1014.83
2019-02-05T02:18:04.001Z,1014.81
2019-02-05T02:19:03.988Z,1014.75
2019-02-05T02:20:03.976Z,1014.75
2019-02-05T02:21:03.965Z,1014.71
2019-02-05T02:22:03.945Z,1014.69
2019-02-05T02:23:03.937Z,1014.68
2019-02-05T02:24:03.922Z,1014.59
2019-02-05T02:25:03.921Z,1014.56
2019-02-05T02:26:03.923Z,1014.51
2019-02-05T02:27:03.883Z,1014.52
2019-02-05T02:28:03.972Z,1014.57
2019-02-05T02:29:03.934Z,1014.57
2019-02-05T02:30:03.853Z,1014.57
2019-02-05T02:31:03.834Z,1014.57
2019-02-05T02:32:03.825Z,1014.60
2019-02-05T02:33:03.809Z,1014.57
2019-02-05T02:34:03.802Z,1014.51
2019-02-05T02:35:03.779Z,1014.50
2019-02-05T02:36:03.777Z,1014.53
2019-02-05T02:37:03.754Z,1014.52
2019-02-05T02:38:03.745Z,1014.56
2019-02-05T02:39:03.737Z,1014.58
2019-02-05T02:40:03.719Z,1014.64
2019-02-05T02:41:03.704Z,1014.64
2019-02-05T02:42:03.695Z,1014.64
2019-02-05T02:43:03.687Z,1014.68
2019-02-05T02:44:03.675Z,1014.72
2019-02-05T02:45:03.658Z,1014.67
2019-02-05T02:46:03.653Z,1014.71
2019-02-05T02:47:03.631Z,1014.72
2019-02-05T02:48:03.619Z,1014.69
2019-02-05T02:49:03.605Z,1014.70
2019-02-05T02:50:03.596Z,1014.68
2019-02-05T02:51:03.598Z,1014.72
2019-02-05T02:52:03.562Z,1014.76
2019-02-05T02:53:03.591Z,1014.77
2019-02-05T02:54:03.537Z,1014.77
2019-02-05T02:55:03.536Z,1014.80
2019-02-05T02:56:03.508Z,1014.82
2019-02-05T02:57:05.080Z,1014.84
2019-02-05T03:14:01.656Z,1014.77
2019-02-05T03:15:01.598Z,1014.76
2019-02-05T03:16:01.741Z,1014.78
2019-02-05T03:17:01.587Z,1014.86
2019-02-05T03:18:01.545Z,1014.84
2019-02-05T03:19:01.521Z,1014.84
2019-02-05T03:20:01.505Z,1014.87
2019-02-05T03:21:01.589Z,1014.84
2019-02-05T03:22:01.487Z,1014.82
2019-02-05T03:23:01.461Z,1014.76
2019-02-05T03:24:01.462Z,1014.78
2019-02-05T03:25:01.553Z,1014.68
2019-02-05T03:26:01.424Z,1014.67
2019-02-05T03:27:01.413Z,1014.72
2019-02-05T03:28:01.391Z,1014.73
2019-02-05T03:29:01.382Z,1014.76
2019-02-05T03:30:01.364Z,1014.79
2019-02-05T03:31:01.399Z,1014.82
2019-02-05T03:32:01.339Z,1014.83
2019-02-05T03:33:01.322Z,1014.83
2019-02-05T03:34:01.313Z,1014.79
2019-02-05T03:35:01.299Z,1014.78
2019-02-05T03:36:01.286Z,1014.76
2019-02-05T03:37:01.274Z,1014.81
2019-02-05T03:38:01.249Z,1014.84
2019-02-05T03:39:01.238Z,1014.89
2019-02-05T03:40:01.214Z,1014.94
2019-02-05T03:41:01.205Z,1015.00
2019-02-05T03:42:01.197Z,1014.94
2019-02-05T03:43:01.190Z,1014.94
2019-02-05T03:44:01.181Z,1014.93
2019-02-05T03:45:01.155Z,1014.89
2019-02-05T03:46:01.147Z,1014.92
2019-02-05T03:47:01.121Z,1014.91
2019-02-05T03:48:01.113Z,1014.97
2019-02-05T03:49:01.097Z,1015.02
2019-02-05T03:50:01.077Z,1015.01
2019-02-05T03:51:01.076Z,1015.04
2019-02-05T03:52:01.075Z,1015.05
2019-02-05T03:53:01.042Z,1015.01
2019-02-05T03:54:01.025Z,1015.05
2019-02-05T03:55:01.010Z,1015.05
2019-02-05T03:56:01.021Z,1015.06
2019-02-05T03:57:00.989Z,1015.05
2019-02-05T03:58:00.995Z,1014.96
2019-02-05T03:59:00.991Z,1015.01
2019-02-05T04:00:01.181Z,1014.95
2019-02-05T04:01:00.929Z,1014.99
2019-02-05T04:02:00.923Z,1014.97
2019-02-05T04:03:00.905Z,1014.93
2019-02-05T04:04:00.903Z,1014.95
2019-02-05T04:05:00.894Z,1014.97
2019-02-05T04:06:00.866Z,1014.96
2019-02-05T04:07:00.851Z,1014.98
2019-02-05T04:08:00.838Z,1015.03
2019-02-05T04:09:00.821Z,1015.00
2019-02-05T04:10:00.812Z,1015.03
2019-02-05T04:11:00.802Z,1014.98
2019-02-05T04:12:01.677Z,1014.93
2019-02-05T04:13:00.772Z,1014.93
2019-02-05T04:14:00.764Z,1014.90
2019-02-05T04:15:00.738Z,1014.92
2019-02-05T04:16:00.739Z,1014.93
2019-02-05T04:17:00.714Z,1015.00
2019-02-05T04:18:00.703Z,1015.03
2019-02-05T04:19:00.694Z,1015.04
2019-02-05T04:20:00.676Z,1015.01
2019-02-05T04:21:00.663Z,1015.00
2019-02-05T04:22:00.656Z,1015.01
2019-02-05T04:23:00.627Z,1015.00
2019-02-05T04:24:00.627Z,1014.97
2019-02-05T04:25:00.608Z,1014.97
2019-02-05T04:26:00.588Z,1014.96
2019-02-05T04:27:00.579Z,1014.94
2019-02-05T04:28:00.564Z,1014.95
2019-02-05T04:29:00.549Z,1014.93
2019-02-05T04:30:00.563Z,1014.98
2019-02-05T04:31:00.534Z,1015.00
2019-02-05T04:32:00.507Z,1015.03
2019-02-05T04:33:00.503Z,1015.02
2019-02-05T04:34:00.499Z,1015.03
2019-02-05T04:35:00.476Z,1015.01
2019-02-05T04:36:00.457Z,1015.06
2019-02-05T04:37:00.444Z,1015.06
2019-02-05T04:38:00.442Z,1015.07
2019-02-05T04:39:00.416Z,1015.11
2019-02-05T04:40:00.404Z,1015.14
2019-02-05T04:41:00.401Z,1015.06
2019-02-05T04:42:00.396Z,1015.05
2019-02-05T04:43:00.375Z,1015.03
2019-02-05T04:44:00.360Z,1015.05
2019-02-05T04:45:00.334Z,1015.09
2019-02-05T04:46:00.329Z,1015.04
2019-02-05T04:47:00.301Z,1015.08
2019-02-05T04:48:00.308Z,1015.13
2019-02-05T04:49:00.285Z,1015.06
2019-02-05T04:50:00.268Z,1015.06
2019-02-05T04:51:00.248Z,1015.05
2019-02-05T04:52:00.250Z,1015.08
2019-02-05T04:53:00.227Z,1015.09
2019-02-05T04:54:00.214Z,1015.10
2019-02-05T04:55:00.373Z,1015.04
2019-02-05T04:56:00.188Z,1015.08
2019-02-05T04:57:00.168Z,1015.08
2019-02-05T04:58:01.623Z,1015.08
2019-02-05T04:59:00.151Z,1015.11
2019-02-05T05:00:00.478Z,1015.10
2019-02-05T05:01:00.117Z,1015.10
2019-02-05T05:02:00.100Z,1015.08
2019-02-05T05:03:00.081Z,1015.06
2019-02-05T05:04:00.081Z,1015.06
2019-02-05T05:05:00.105Z,1015.02
2019-02-05T05:06:00.043Z,1015.05
2019-02-05T05:07:00.061Z,1015.00
2019-02-05T05:08:00.013Z,1015.04
2019-02-05T05:09:00.002Z,1015.01
2019-02-05T05:09:59.990Z,1015.03
2019-02-05T05:10:59.991Z,1015.04
2019-02-05T05:11:59.965Z,1015.10
2019-02-05T05:12:59.953Z,1015.10
2019-02-05T05:13:59.934Z,1015.12
2019-02-05T05:14:59.940Z,1015.14
2019-02-05T05:15:59.902Z,1015.14
2019-02-05T05:16:59.899Z,1015.16
2019-02-05T05:17:59.896Z,1015.22
2019-02-05T05:18:59.863Z,1015.19
2019-02-05T05:19:59.844Z,1015.23
2019-02-05T05:20:59.828Z,1015.24
2019-02-05T05:21:59.818Z,1015.23
2019-02-05T05:22:59.809Z,1015.24
2019-02-05T05:23:59.806Z,1015.25
2019-02-05T05:24:59.776Z,1015.25
2019-02-05T05:25:59.765Z,1015.26
2019-02-05T05:26:59.763Z,1015.30
2019-02-05T05:28:09.778Z,1015.34
2019-02-05T05:28:59.724Z,1015.34
2019-02-05T05:29:59.708Z,1015.36
2019-02-05T05:30:59.692Z,1015.35
2019-02-05T05:31:59.683Z,1015.37
2019-02-05T05:32:59.672Z,1015.39
2019-02-05T05:33:59.647Z,1015.41
2019-02-05T05:34:59.630Z,1015.44
2019-02-05T05:35:59.618Z,1015.43
2019-02-05T05:36:59.629Z,1015.45
2019-02-05T05:37:59.620Z,1015.47
2019-02-05T05:38:59.578Z,1015.47
2019-02-05T05:39:59.569Z,1015.46
2019-02-05T05:40:59.550Z,1015.47
2019-02-05T05:41:59.539Z,1015.45
2019-02-05T05:42:59.524Z,1015.43
2019-02-05T05:43:59.527Z,1015.41
2019-02-05T05:44:59.493Z,1015.36
2019-02-05T05:45:59.490Z,1015.41
2019-02-05T05:46:59.470Z,1015.40
2019-02-05T05:47:59.463Z,1015.40
2019-02-05T05:48:59.440Z,1015.35
2019-02-05T05:49:59.464Z,1015.36
2019-02-05T05:50:59.437Z,1015.41
2019-02-05T05:51:59.417Z,1015.36
2019-02-05T05:52:59.405Z,1015.40
2019-02-05T05:53:59.380Z,1015.41
2019-02-05T05:54:59.369Z,1015.42
2019-02-05T05:55:59.336Z,1015.42
2019-02-05T05:56:59.331Z,1015.42
2019-02-05T05:57:59.315Z,1015.50
2019-02-05T05:58:59.312Z,1015.53
2019-02-05T05:59:59.304Z,1015.55
2019-02-05T06:00:59.267Z,1015.53
2019-02-05T06:01:59.261Z,1015.58
2019-02-05T06:02:59.250Z,1015.58
2019-02-05T06:03:59.233Z,1015.57
2019-02-05T06:04:59.215Z,1015.58
2019-02-05T06:05:59.201Z,1015.55
2019-02-05T06:06:59.186Z,1015.51
2019-02-05T06:07:59.174Z,1015.53
2019-02-05T06:08:59.167Z,1015.55
2019-02-05T06:09:59.142Z,1015.55
2019-02-05T06:10:59.142Z,1015.55
2019-02-05T06:11:59.124Z,1015.58
2019-02-05T06:12:59.107Z,1015.57
2019-02-05T06:15:35.648Z,1015.57
2019-02-05T06:16:32.844Z,1015.59
2019-02-05T06:18:38.324Z,1015.59
2019-02-05T06:19:37.920Z,1015.57
2019-02-05T06:21:43.423Z,1015.55
2019-02-05T06:22:43.398Z,1015.55
2019-02-05T06:23:43.409Z,1015.50
2019-02-05T06:24:43.384Z,1015.51
2019-02-05T06:25:43.362Z,1015.51
2019-02-05T06:26:43.278Z,1015.55
2019-02-05T06:27:43.304Z,1015.55
2019-02-05T06:28:43.263Z,1015.58
2019-02-05T06:29:43.297Z,1015.58
2019-02-05T06:30:43.277Z,1015.62
2019-02-05T06:31:43.263Z,1015.62
2019-02-05T06:32:43.214Z,1015.68
2019-02-05T06:33:43.179Z,1015.68
2019-02-05T06:34:43.184Z,1015.72
2019-02-05T06:35:43.212Z,1015.74
2019-02-05T06:36:43.170Z,1015.76
2019-02-05T06:37:43.127Z,1015.79
2019-02-05T06:38:44.741Z,1015.81
2019-02-05T06:39:43.129Z,1015.77
2019-02-05T06:42:15.242Z,1015.81
2019-02-05T06:43:15.207Z,1015.80
2019-02-05T06:44:15.223Z,1015.79
2019-02-05T06:45:15.266Z,1015.75
2019-02-05T06:46:15.167Z,1015.73
2019-02-05T06:47:15.142Z,1015.79
2019-02-05T06:48:15.125Z,1015.79
2019-02-05T06:49:15.163Z,1015.82
2019-02-05T06:50:15.205Z,1015.83
2019-02-05T06:51:15.282Z,1015.84
2019-02-05T06:52:15.079Z,1015.86
2019-02-05T06:53:15.093Z,1015.82
2019-02-05T06:54:15.045Z,1015.83
2019-02-05T06:55:15.054Z,1015.82
2019-02-05T06:56:23.945Z,1015.85
2019-02-05T06:58:27.203Z,1015.86
2019-02-05T06:59:19.493Z,1015.84
2019-02-05T07:00:19.442Z,1015.85
2019-02-05T07:01:19.440Z,1015.86
2019-02-05T07:02:19.441Z,1015.89
2019-02-05T07:03:19.412Z,1015.91
2019-02-05T07:04:19.392Z,1015.93
2019-02-05T07:05:19.379Z,1015.93
2019-02-05T07:06:19.367Z,1015.97
2019-02-05T07:07:19.385Z,1015.97
2019-02-05T07:08:19.347Z,1015.96
2019-02-05T07:09:19.334Z,1015.96
2019-02-05T07:10:19.343Z,1015.98
2019-02-05T07:11:19.932Z,1015.99
2019-02-05T07:12:19.389Z,1016.01
2019-02-05T07:13:19.364Z,1015.97
2019-02-05T07:14:19.254Z,1015.96
2019-02-05T07:15:19.267Z,1015.97
2019-02-05T07:16:19.248Z,1015.93
2019-02-05T07:17:19.278Z,1015.93
2019-02-05T07:18:19.203Z,1015.93
2019-02-05T07:19:19.204Z,1015.93
2019-02-05T07:20:19.193Z,1016.02
2019-02-05T07:21:19.219Z,1015.98
2019-02-05T07:22:19.167Z,1016.00
2019-02-05T07:23:19.133Z,1016.04
2019-02-05T07:24:19.191Z,1016.06
2019-02-05T07:25:19.132Z,1016.04
2019-02-05T07:26:19.121Z,1016.04
2019-02-05T07:27:19.113Z,1016.10
2019-02-05T07:28:19.081Z,1016.08
2019-02-05T07:29:19.067Z,1016.14
2019-02-05T07:30:19.067Z,1016.14
2019-02-05T07:31:19.025Z,1016.18
2019-02-05T07:32:19.006Z,1016.16
2019-02-05T07:33:19.005Z,1016.15
2019-02-05T07:34:21.207Z,1016.08
2019-02-05T07:35:18.977Z,1016.12
2019-02-05T07:36:18.974Z,1016.13
2019-02-05T07:37:18.969Z,1016.13
2019-02-05T07:38:18.941Z,1016.15
2019-02-05T07:39:27.745Z,1016.14
2019-02-05T07:41:23.413Z,1016.14
2019-02-05T07:42:23.379Z,1016.13
2019-02-05T07:43:23.358Z,1016.12
2019-02-05T07:44:23.351Z,1016.13
2019-02-05T07:45:23.349Z,1016.13
2019-02-05T07:46:23.314Z,1016.14
2019-02-05T07:47:23.573Z,1016.10
2019-02-05T07:48:23.287Z,1016.12
2019-02-05T07:49:23.276Z,1016.07
2019-02-05T07:50:23.263Z,1016.04
2019-02-05T07:51:23.257Z,1016.05
2019-02-05T07:52:23.243Z,1016.07
2019-02-05T07:53:23.235Z,1016.10
2019-02-05T07:54:23.207Z,1016.13
2019-02-05T07:55:23.199Z,1016.22
2019-02-05T07:56:23.190Z,1016.18
2019-02-05T07:57:23.168Z,1016.26
2019-02-05T07:58:23.158Z,1016.22
2019-02-05T07:59:23.135Z,1016.18
2019-02-05T08:00:23.137Z,1016.13
2019-02-05T08:01:23.117Z,1016.12
2019-02-05T08:02:23.113Z,1016.13
2019-02-05T08:03:23.101Z,1016.08
2019-02-05T08:04:23.081Z,1016.14
2019-02-05T08:05:23.062Z,1016.10
2019-02-05T08:06:23.048Z,1016.17
2019-02-05T08:07:23.095Z,1016.18
2019-02-05T08:08:23.028Z,1016.16
2019-02-05T08:09:23.017Z,1016.19
2019-02-05T08:10:23.005Z,1016.21
2019-02-05T08:11:23.008Z,1016.22
2019-02-05T08:12:23.019Z,1016.23
2019-02-05T08:13:22.960Z,1016.28
2019-02-05T08:14:22.945Z,1016.26
2019-02-05T08:15:22.944Z,1016.30
2019-02-05T08:16:23.053Z,1016.27
2019-02-05T08:17:22.940Z,1016.30
2019-02-05T08:18:22.904Z,1016.31
2019-02-05T08:19:22.878Z,1016.28
2019-02-05T08:20:22.870Z,1016.31
2019-02-05T08:21:22.868Z,1016.28
2019-02-05T08:22:22.856Z,1016.30
2019-02-05T08:23:22.856Z,1016.29
2019-02-05T08:24:22.887Z,1016.33
2019-02-05T08:25:22.809Z,1016.33
2019-02-05T08:26:22.923Z,1016.34
2019-02-05T08:27:22.892Z,1016.33
2019-02-05T08:28:22.774Z,1016.35
2019-02-05T08:29:22.755Z,1016.35
2019-02-05T08:30:22.751Z,1016.36
2019-02-05T08:31:22.735Z,1016.33
2019-02-05T08:32:22.720Z,1016.34
2019-02-05T08:33:22.705Z,1016.39
2019-02-05T08:34:22.692Z,1016.38
2019-02-05T08:35:22.685Z,1016.41
2019-02-05T08:36:22.674Z,1016.40
2019-02-05T08:37:22.658Z,1016.38
2019-02-05T08:38:31.308Z,1016.39
2019-02-05T08:40:27.117Z,1016.40
2019-02-05T08:41:36.776Z,1016.38
2019-02-05T08:43:31.549Z,1016.41
2019-02-05T08:44:31.619Z,1016.40
2019-02-05T08:45:31.580Z,1016.42
2019-02-05T08:46:31.538Z,1016.44
2019-02-05T08:47:31.505Z,1016.48
2019-02-05T08:48:31.479Z,1016.49
2019-02-05T08:49:31.473Z,1016.47
2019-02-05T08:50:31.458Z,1016.50
2019-02-05T08:51:31.442Z,1016.54
2019-02-05T08:52:31.443Z,1016.52
2019-02-05T08:53:31.421Z,1016.52
2019-02-05T08:54:31.410Z,1016.53
2019-02-05T08:55:31.396Z,1016.55
2019-02-05T08:56:31.384Z,1016.58
2019-02-05T08:57:31.383Z,1016.60
2019-02-05T08:58:31.498Z,1016.59
2019-02-05T08:59:31.341Z,1016.63
2019-02-05T09:00:39.982Z,1016.67
2019-02-05T09:02:35.829Z,1016.64
2019-02-05T09:03:35.787Z,1016.61
2019-02-05T09:04:35.766Z,1016.58
2019-02-05T09:05:35.760Z,1016.60
2019-02-05T09:06:44.393Z,1016.62
2019-02-05T09:08:51.229Z,1016.61
2019-02-05T09:09:41.204Z,1016.64
2019-02-05T09:10:41.206Z,1016.68
2019-02-05T09:11:41.180Z,1016.67
2019-02-05T09:12:41.176Z,1016.68
2019-02-05T09:13:41.152Z,1016.74
2019-02-05T09:14:41.135Z,1016.77
2019-02-05T09:15:41.122Z,1016.79
2019-02-05T09:16:41.118Z,1016.79
2019-02-05T09:17:41.099Z,1016.82
2019-02-05T09:18:41.088Z,1016.77
2019-02-05T09:19:50.750Z,1016.77
2019-02-05T09:21:53.226Z,1016.71
2019-02-05T09:22:54.160Z,1016.76
2019-02-05T09:24:50.015Z,1016.82
2019-02-05T09:25:58.633Z,1016.82
2019-02-05T09:27:55.441Z,1016.78
2019-02-05T09:29:04.913Z,1016.78
2019-02-05T09:30:59.901Z,1016.81
2019-02-05T09:31:59.871Z,1016.83
2019-02-05T09:32:59.856Z,1016.84
2019-02-05T09:33:59.860Z,1016.80
2019-02-05T09:34:59.833Z,1016.84
2019-02-05T09:35:59.829Z,1016.79
2019-02-05T09:36:59.815Z,1016.77
2019-02-05T09:37:59.793Z,1016.76
2019-02-05T09:38:59.792Z,1016.72
2019-02-05T09:39:59.772Z,1016.69
2019-02-05T09:40:59.765Z,1016.64
2019-02-05T09:41:59.750Z,1016.69
2019-02-05T09:42:59.730Z,1016.64
2019-02-05T09:43:59.723Z,1016.66
2019-02-05T09:44:59.712Z,1016.71
2019-02-05T09:45:59.703Z,1016.69
2019-02-05T09:46:59.693Z,1016.73
2019-02-05T09:47:59.691Z,1016.69
2019-02-05T09:48:59.661Z,1016.69
2019-02-05T09:49:59.650Z,1016.70
2019-02-05T09:50:59.641Z,1016.69
2019-02-05T09:51:59.640Z,1016.68
2019-02-05T09:52:59.615Z,1016.67
2019-02-05T09:53:59.601Z,1016.68
2019-02-05T09:54:59.591Z,1016.68
2019-02-05T09:55:59.594Z,1016.70
2019-02-05T09:56:59.567Z,1016.68
2019-02-05T09:57:59.554Z,1016.68
2019-02-05T09:58:59.561Z,1016.67
2019-02-05T09:59:59.529Z,1016.70
2019-02-05T10:00:59.867Z,1016.65
2019-02-05T10:01:59.508Z,1016.70
2019-02-05T10:02:59.505Z,1016.69
2019-02-05T10:03:59.487Z,1016.71
2019-02-05T10:04:59.471Z,1016.68
2019-02-05T10:05:59.454Z,1016.74
2019-02-05T10:06:59.447Z,1016.71
2019-02-05T10:07:59.442Z,1016.72
2019-02-05T10:08:59.422Z,1016.78
2019-02-05T10:09:59.458Z,1016.74
2019-02-05T10:10:59.404Z,1016.78
2019-02-05T10:11:59.383Z,1016.76
2019-02-05T10:12:59.379Z,1016.74
2019-02-05T10:13:59.397Z,1016.77
2019-02-05T10:14:59.355Z,1016.85
2019-02-05T10:15:59.352Z,1016.82
2019-02-05T10:16:59.326Z,1016.81
2019-02-05T10:17:59.322Z,1016.80
2019-02-05T10:18:59.318Z,1016.83
2019-02-05T10:19:59.294Z,1016.83
2019-02-05T10:20:59.293Z,1016.87
2019-02-05T10:21:59.268Z,1016.86
2019-02-05T10:22:59.259Z,1016.87
2019-02-05T10:23:59.246Z,1016.89
2019-02-05T10:24:59.244Z,1016.86
2019-02-05T10:25:59.248Z,1016.90
2019-02-05T10:26:59.225Z,1016.91
2019-02-05T10:27:59.204Z,1016.91
2019-02-05T10:28:59.196Z,1016.97
2019-02-05T10:29:59.656Z,1017.00
2019-02-05T10:30:59.181Z,1017.00
2019-02-05T10:31:59.258Z,1017.00
2019-02-05T10:32:59.146Z,1017.00
2019-02-05T10:33:59.136Z,1017.01
2019-02-05T10:34:59.116Z,1017.07
2019-02-05T10:36:01.326Z,1017.02
2019-02-05T10:36:59.099Z,1017.03
2019-02-05T10:37:59.104Z,1017.03
2019-02-05T10:38:59.083Z,1017.05
2019-02-05T10:39:59.062Z,1017.05
2019-02-05T10:40:59.059Z,1017.04
2019-02-05T10:41:59.042Z,1017.08
2019-02-05T10:42:59.050Z,1017.07
2019-02-05T10:43:59.053Z,1017.05
2019-02-05T10:44:59.008Z,1017.05
2019-02-05T10:45:58.996Z,1017.09
2019-02-05T10:46:58.985Z,1017.06
2019-02-05T10:47:58.987Z,1017.09
2019-02-05T10:48:58.964Z,1017.12
2019-02-05T10:49:58.990Z,1017.13
2019-02-05T10:50:58.953Z,1017.11
2019-02-05T10:51:58.941Z,1017.10
2019-02-05T10:52:58.924Z,1017.11
2019-02-05T10:53:58.915Z,1017.07
2019-02-05T10:54:58.918Z,1017.07
2019-02-05T10:55:58.890Z,1017.11
2019-02-05T10:56:58.886Z,1017.11
2019-02-05T10:57:58.876Z,1017.13
2019-02-05T10:58:58.854Z,1017.10
2019-02-05T11:00:08.482Z,1017.08
2019-02-05T11:00:58.864Z,1017.04
2019-02-05T11:01:58.825Z,1017.02
2019-02-05T11:02:58.819Z,1017.01
2019-02-05T11:03:58.805Z,1016.98
2019-02-05T11:04:58.799Z,1017.01
2019-02-05T11:05:58.777Z,1017.05
2019-02-05T11:06:58.812Z,1017.04
2019-02-05T11:07:58.764Z,1017.06
2019-02-05T11:08:58.747Z,1017.05
2019-02-05T11:09:58.752Z,1017.05
2019-02-05T11:10:58.731Z,1017.02
2019-02-05T11:11:58.718Z,1017.05
2019-02-05T11:12:58.710Z,1017.02
2019-02-05T11:13:58.732Z,1017.01
2019-02-05T11:14:58.689Z,1017.01
2019-02-05T11:15:58.681Z,1017.00
2019-02-05T11:16:58.670Z,1016.99
2019-02-05T11:17:58.655Z,1016.98
2019-02-05T11:18:58.640Z,1016.96
2019-02-05T11:19:58.689Z,1017.00
2019-02-05T11:20:58.616Z,1016.95
2019-02-05T11:21:58.607Z,1016.94
2019-02-05T11:22:58.628Z,1016.92
2019-02-05T11:23:58.591Z,1016.91
2019-02-05T11:24:58.573Z,1016.90
2019-02-05T11:25:58.572Z,1016.86
2019-02-05T11:26:58.564Z,1016.84
2019-02-05T11:27:58.544Z,1016.86
2019-02-05T11:28:58.556Z,1016.84
2019-02-05T11:29:58.531Z,1016.89
2019-02-05T11:30:58.510Z,1016.84
2019-02-05T11:31:58.520Z,1016.84
2019-02-05T11:32:58.496Z,1016.81
2019-02-05T11:33:58.512Z,1016.79
2019-02-05T11:34:58.466Z,1016.79
2019-02-05T11:36:07.116Z,1016.75
2019-02-05T11:38:02.951Z,1016.69
2019-02-05T11:39:02.922Z,1016.68
2019-02-05T11:40:12.568Z,1016.67
2019-02-05T11:41:56.514Z,1016.65
2019-02-05T11:42:56.500Z,1016.67
2019-02-05T11:43:56.483Z,1016.63
2019-02-05T11:44:56.485Z,1016.62
2019-02-05T11:45:56.474Z,1016.62
2019-02-05T11:46:56.452Z,1016.55
2019-02-05T11:47:56.441Z,1016.59
2019-02-05T11:48:56.434Z,1016.55
2019-02-05T11:49:56.425Z,1016.51
2019-02-05T11:50:56.407Z,1016.51
2019-02-05T11:51:56.397Z,1016.54
2019-02-05T11:52:56.389Z,1016.54
2019-02-05T11:53:56.402Z,1016.56
2019-02-05T11:54:56.379Z,1016.56
2019-02-05T11:55:56.371Z,1016.57
2019-02-05T11:56:56.349Z,1016.55
2019-02-05T11:58:05.006Z,1016.55
2019-02-05T12:00:00.834Z,1016.52
2019-02-05T12:01:10.323Z,1016.54
2019-02-05T12:03:05.327Z,1016.54
2019-02-05T12:04:05.294Z,1016.51
2019-02-05T12:05:05.270Z,1016.50
2019-02-05T12:06:05.254Z,1016.50
2019-02-05T12:07:05.252Z,1016.49
2019-02-05T12:08:05.277Z,1016.51
2019-02-05T12:09:05.232Z,1016.50
2019-02-05T12:10:05.215Z,1016.50
2019-02-05T12:11:05.247Z,1016.49
2019-02-05T12:12:05.199Z,1016.47
2019-02-05T12:13:05.187Z,1016.49
2019-02-05T12:14:05.183Z,1016.52
2019-02-05T12:15:14.830Z,1016.51
2019-02-05T12:17:09.644Z,1016.52
2019-02-05T12:18:09.636Z,1016.52
2019-02-05T12:19:09.609Z,1016.50
2019-02-05T12:20:19.304Z,1016.51
2019-02-05T12:22:14.092Z,1016.49
2019-02-05T12:23:14.063Z,1016.46
2019-02-05T12:24:14.051Z,1016.46
2019-02-05T12:25:14.040Z,1016.43
2019-02-05T12:26:14.038Z,1016.39
2019-02-05T12:27:14.020Z,1016.36
2019-02-05T12:28:14.023Z,1016.32
2019-02-05T12:29:13.998Z,1016.32
2019-02-05T12:30:13.990Z,1016.29
2019-02-05T12:31:13.981Z,1016.30
2019-02-05T12:32:13.972Z,1016.27
2019-02-05T12:33:13.988Z,1016.27
2019-02-05T12:34:13.962Z,1016.22
2019-02-05T12:35:13.949Z,1016.23
2019-02-05T12:36:13.935Z,1016.20
2019-02-05T12:37:13.920Z,1016.22
2019-02-05T12:38:13.916Z,1016.22
2019-02-05T12:39:13.902Z,1016.20
2019-02-05T12:40:13.898Z,1016.23
2019-02-05T12:41:13.887Z,1016.20
2019-02-05T12:42:13.877Z,1016.21
2019-02-05T12:43:13.878Z,1016.23
2019-02-05T12:44:13.894Z,1016.18
2019-02-05T12:45:13.857Z,1016.21
2019-02-05T12:46:13.843Z,1016.22